createdAt,value
2022-08-08T00:03:40.061Z,4.20
2022-08-08T00:08:43.461Z,2.30
2022-08-08T00:14:16.634Z,2.80
2022-08-08T00:19:36.068Z,3.70
2022-08-08T00:24:44.187Z,3.10
2022-08-08T00:29:50.172Z,4.10
2022-08-08T00:35:20.405Z,5.50
2022-08-08T00:41:12.842Z,3.50
2022-08-08T00:45:57.249Z,2.90
2022-08-08T00:51:20.429Z,6.50
2022-08-08T00:56:30.008Z,6.30
2022-08-08T01:01:41.348Z,4.30
2022-08-08T01:07:01.801Z,3.10
2022-08-08T01:12:34.201Z,3.50
2022-08-08T01:18:02.708Z,4.80
2022-08-08T01:23:05.402Z,3.50
2022-08-08T01:28:28.085Z,3.50
2022-08-08T01:33:54.202Z,5.80
2022-08-08T01:39:02.912Z,4.40
2022-08-08T01:44:18.459Z,3.60
2022-08-08T01:49:37.234Z,4.60
2022-08-08T01:55:25.651Z,4.60
2022-08-08T02:00:13.062Z,5.10
2022-08-08T02:05:23.439Z,4.50
2022-08-08T02:10:48.651Z,3.20
2022-08-08T02:16:02.105Z,7.10
2022-08-08T02:21:30.244Z,7.20
2022-08-08T02:26:35.460Z,4.60
2022-08-08T02:32:01.280Z,6.10
2022-08-08T02:37:52.843Z,4.90
2022-08-08T02:44:35.716Z,6.10
2022-08-08T02:48:35.618Z,8.60
2022-08-08T02:53:47.644Z,5.50
2022-08-08T02:59:26.033Z,6.00
2022-08-08T03:05:03.187Z,3.70
2022-08-08T03:10:37.827Z,6.80
2022-08-08T03:16:00.903Z,5.40
2022-08-08T03:21:09.630Z,7.00
2022-08-08T03:26:17.254Z,6.80
2022-08-08T03:32:05.905Z,5.60
2022-08-08T03:37:20.103Z,8.20
2022-08-08T03:42:32.330Z,6.50
2022-08-08T03:47:45.207Z,6.20
2022-08-08T03:52:49.087Z,17.00
2022-08-08T03:58:35.070Z,19.30
2022-08-08T04:03:14.559Z,11.30
2022-08-08T04:08:33.579Z,13.20
2022-08-08T04:14:03.490Z,9.40
2022-08-08T04:19:01.355Z,4.50
2022-08-08T04:24:19.159Z,6.50
2022-08-08T04:29:36.627Z,6.30
2022-08-08T04:34:49.224Z,7.00
2022-08-08T04:40:06.494Z,5.60
2022-08-08T04:45:13.840Z,6.20
2022-08-08T04:50:24.165Z,10.00
2022-08-08T04:55:37.960Z,7.20
2022-08-08T05:00:51.801Z,6.60
2022-08-08T05:05:54.363Z,6.00
2022-08-08T05:10:57.771Z,4.30
2022-08-08T05:16:51.733Z,6.80
2022-08-08T05:21:22.603Z,6.70
2022-08-08T05:26:27.549Z,3.70
2022-08-08T05:32:05.556Z,7.20
2022-08-08T05:36:53.689Z,3.40
2022-08-08T05:42:00.703Z,4.80
2022-08-08T05:47:04.936Z,3.50
2022-08-08T05:52:09.580Z,3.00
2022-08-08T05:57:15.545Z,4.60
2022-08-08T06:02:43.526Z,4.60
2022-08-08T06:07:50.379Z,6.90
2022-08-08T06:12:53.387Z,4.10
2022-08-08T06:18:20.357Z,5.70
2022-08-08T06:23:23.494Z,6.10
2022-08-08T06:28:45.007Z,7.00
2022-08-08T06:34:26.585Z,2.70
2022-08-08T06:39:11.579Z,1.30
2022-08-08T06:44:25.125Z,4.00
2022-08-08T06:54:52.129Z,2.10
2022-08-08T07:00:10.893Z,3.30
2022-08-08T07:05:20.728Z,1.30
2022-08-08T07:10:33.306Z,4.00
2022-08-08T07:16:04.793Z,4.70
2022-08-08T07:21:18.495Z,2.60
2022-08-08T07:26:32.752Z,3.20
2022-08-08T07:31:35.865Z,4.30
2022-08-08T07:36:48.367Z,2.10
2022-08-08T07:42:04.272Z,2.30
2022-08-08T07:47:07.549Z,4.90
2022-08-08T07:52:13.313Z,7.10
2022-08-08T07:57:27.361Z,3.00
2022-08-08T08:02:42.938Z,4.60
2022-08-08T08:07:54.849Z,4.10
2022-08-08T08:13:25.595Z,0.60
2022-08-08T08:18:55.826Z,4.60
2022-08-08T08:24:02.589Z,1.90
2022-08-08T08:29:06.046Z,3.20
2022-08-08T08:34:09.057Z,6.10
2022-08-08T08:39:17.539Z,3.10
2022-08-08T08:44:29.039Z,2.60
2022-08-08T08:49:34.616Z,5.00
2022-08-08T08:54:38.572Z,2.50
2022-08-08T09:00:01.902Z,2.10
2022-08-08T09:05:07.987Z,4.40
2022-08-08T09:10:17.354Z,2.20
2022-08-08T09:15:37.471Z,1.30
2022-08-08T09:22:02.794Z,4.70
2022-08-08T09:26:16.417Z,2.70
2022-08-08T09:31:42.825Z,1.80
2022-08-08T09:37:57.105Z,1.70
2022-08-08T09:42:34.133Z,3.70
2022-08-08T09:48:04.709Z,2.40
2022-08-08T09:53:23.465Z,4.20
2022-08-08T09:58:41.453Z,1.50
2022-08-08T10:03:56.067Z,2.00
2022-08-08T10:09:00.264Z,2.70
2022-08-08T10:14:06.170Z,2.80
2022-08-08T10:19:09.308Z,1.90
2022-08-08T10:24:29.640Z,3.20
2022-08-08T10:29:58.400Z,1.60
2022-08-08T10:35:02.701Z,2.10
2022-08-08T10:40:16.807Z,2.70
2022-08-08T10:45:19.050Z,4.30
2022-08-08T10:50:31.859Z,2.70
2022-08-08T10:55:57.877Z,1.80
2022-08-08T11:01:10.939Z,1.40
2022-08-08T11:06:16.186Z,1.90
2022-08-08T11:11:32.543Z,2.50
2022-08-08T11:16:42.659Z,3.30
2022-08-08T11:21:55.664Z,2.30
2022-08-08T11:26:59.461Z,3.10
2022-08-08T11:32:03.815Z,1.90
2022-08-08T11:37:15.363Z,2.20
2022-08-08T11:42:18.514Z,4.30
2022-08-08T11:47:39.264Z,2.70
2022-08-08T11:52:47.214Z,2.50
2022-08-08T11:58:06.855Z,5.80
2022-08-08T12:03:30.762Z,1.40
2022-08-08T12:08:34.646Z,3.10
2022-08-08T12:14:02.362Z,7.20
2022-08-08T12:19:01.067Z,2.60
2022-08-08T12:24:10.310Z,1.90
2022-08-08T12:29:42.302Z,5.60
2022-08-08T12:34:50.645Z,2.30
2022-08-08T12:45:20.067Z,2.60
2022-08-08T12:50:42.378Z,1.80
2022-08-08T12:56:19.618Z,5.40
2022-08-08T13:01:29.538Z,2.40
2022-08-08T13:06:36.986Z,2.10
2022-08-08T13:12:24.478Z,5.00
2022-08-08T13:17:01.122Z,3.00
2022-08-08T13:22:06.799Z,2.50
2022-08-08T13:27:13.343Z,5.20
2022-08-08T13:32:16.984Z,3.50
2022-08-08T13:37:52.062Z,4.30
2022-08-08T13:42:42.357Z,1.90
2022-08-08T13:47:56.172Z,3.30
2022-08-08T13:53:00.248Z,2.80
2022-08-08T13:58:22.070Z,1.60
2022-08-08T14:03:53.139Z,2.10
2022-08-08T14:08:49.769Z,3.50
2022-08-08T14:13:59.564Z,2.10
2022-08-08T14:19:10.588Z,4.00
2022-08-08T14:24:13.642Z,1.80
2022-08-08T14:29:30.102Z,2.10
2022-08-08T14:34:33.079Z,4.10
2022-08-08T14:39:48.169Z,1.20
2022-08-08T14:44:55.721Z,5.00
2022-08-08T14:50:15.168Z,3.10
2022-08-08T14:55:22.406Z,3.20
2022-08-08T15:00:37.797Z,2.60
2022-08-08T15:05:43.231Z,3.80
2022-08-08T15:10:55.683Z,2.20
2022-08-08T15:16:02.977Z,2.70
2022-08-08T15:21:05.811Z,3.40
2022-08-08T15:26:10.951Z,2.10
2022-08-08T15:31:21.693Z,3.50
2022-08-08T15:36:37.524Z,2.10
2022-08-08T15:41:43.585Z,1.60
2022-08-08T15:46:50.846Z,2.00
2022-08-08T15:51:54.443Z,1.60
2022-08-08T15:56:56.740Z,3.90
2022-08-08T16:02:00.239Z,4.60
2022-08-08T16:07:03.135Z,1.30
2022-08-08T16:13:15.667Z,2.80
2022-08-08T16:17:38.735Z,3.00
2022-08-08T16:22:49.470Z,3.00
2022-08-08T16:27:57.166Z,4.00
2022-08-08T16:32:59.898Z,1.50
2022-08-08T16:38:03.568Z,2.10
2022-08-08T16:43:06.021Z,2.90
2022-08-08T16:48:08.538Z,3.60
2022-08-08T16:55:05.141Z,2.90
2022-08-08T16:58:34.884Z,3.40
2022-08-08T17:04:01.192Z,2.50
2022-08-08T17:08:59.596Z,3.10
2022-08-08T17:14:02.062Z,5.10
2022-08-08T17:19:04.174Z,4.20
2022-08-08T17:24:10.617Z,1.90
2022-08-08T17:29:33.499Z,2.20
2022-08-08T17:35:04.365Z,2.00
2022-08-08T17:40:06.027Z,3.30
2022-08-08T17:45:21.136Z,2.50
2022-08-08T17:50:25.897Z,5.80
2022-08-08T17:56:05.973Z,2.80
2022-08-08T18:00:56.201Z,1.90
2022-08-08T18:05:59.301Z,2.10
2022-08-08T18:11:02.708Z,3.30
2022-08-08T18:16:05.961Z,6.20
2022-08-08T18:21:10.578Z,4.40
2022-08-08T18:26:12.769Z,3.60
2022-08-08T18:31:15.060Z,4.30
2022-08-08T18:36:22.869Z,4.10
2022-08-08T18:41:51.216Z,3.70
2022-08-08T18:46:55.777Z,3.20
2022-08-08T18:57:02.021Z,7.30
2022-08-08T19:02:26.411Z,6.00
2022-08-08T19:07:29.639Z,9.10
2022-08-08T19:12:35.336Z,8.80
2022-08-08T19:17:47.997Z,6.70
2022-08-08T19:23:05.898Z,9.40
2022-08-08T19:28:19.457Z,6.50
2022-08-08T19:33:24.547Z,6.00
2022-08-08T19:38:26.591Z,8.50
2022-08-08T19:43:30.488Z,3.70
2022-08-08T19:48:33.446Z,4.40
2022-08-08T19:53:46.790Z,7.60
2022-08-08T19:58:54.727Z,6.00
2022-08-08T20:04:00.404Z,7.50
2022-08-08T20:09:09.124Z,5.50
2022-08-08T20:14:32.178Z,6.50
2022-08-08T20:19:33.438Z,7.20
2022-08-08T20:24:36.649Z,6.60
2022-08-08T20:29:55.390Z,9.70
2022-08-08T20:35:02.492Z,9.00
2022-08-08T20:40:05.277Z,4.80
2022-08-08T20:45:08.733Z,6.20
2022-08-08T20:50:10.894Z,4.40
2022-08-08T20:55:16.298Z,5.10
2022-08-08T21:00:24.935Z,7.50
2022-08-08T21:05:31.895Z,8.30
2022-08-08T21:10:34.123Z,7.00
2022-08-08T21:16:04.971Z,6.40
2022-08-08T21:20:58.668Z,5.50
2022-08-08T21:26:00.549Z,8.40
2022-08-08T21:31:22.041Z,6.50
2022-08-08T21:36:29.414Z,7.40
2022-08-08T21:41:43.199Z,8.90
2022-08-08T21:48:05.837Z,6.10
2022-08-08T21:54:35.832Z,9.00
2022-08-08T21:57:42.073Z,5.30
2022-08-08T22:02:46.280Z,6.60
2022-08-08T22:07:49.029Z,7.40
2022-08-08T22:12:51.703Z,8.50
2022-08-08T22:17:54.174Z,6.80
2022-08-08T22:22:56.765Z,4.80
2022-08-08T22:29:03.970Z,3.90
2022-08-08T22:34:13.882Z,5.50
2022-08-08T22:38:51.144Z,5.10
2022-08-08T22:44:02.671Z,8.70
2022-08-08T22:49:09.062Z,10.00
2022-08-08T22:54:32.963Z,8.80
2022-08-08T22:59:36.021Z,9.50
2022-08-08T23:05:04.734Z,11.00
2022-08-08T23:10:08.041Z,7.10
2022-08-08T23:16:41.549Z,9.50
2022-08-08T23:20:32.607Z,15.70
2022-08-08T23:25:45.123Z,14.40
2022-08-08T23:30:50.920Z,10.70
2022-08-08T23:36:07.411Z,15.00
2022-08-08T23:41:12.154Z,11.80
2022-08-08T23:49:06.763Z,16.70
2022-08-08T23:52:03.729Z,12.20
2022-08-08T23:57:02.879Z,9.00
